Swift Current Airport
CYYN : now visible

Airfield :











YOU CAN JOIN US ON...

 
LOGIN :

Register | Disclaimer

   EN    FR    IT 

 









Legend :    VFR   Marginal VFR   IFR   Intensive IFR   Very Intensive IFR
Visi :
Ceiling :
>= 8 km
>= 3000ft
5 to 8 km
1000 to 3000 ft
1500m to 5 km
500 to 1000 ft
800 to 1500m
200 to 500 ft
< 800m
< 200 ft
Symbols :   Thunderstorms  Fog  Heavy snow  Heavy precipitations  Wind > 20 kt






- Airport Elevation : 2680 ft
- IATA code : YYN


CYYN - Swift Current

CURRENT METAR :
  • 221000Z AUTO 12004KT 9SM BKN080 OVC090 M03/M06 A2965 RMK ICG SLP074

EXPIRED METARs :
  • 220900Z AUTO 16008KT 9SM BKN100 OVC120 M04/M06 A2964 RMK ICG INTMT SLP070
  • 220800Z AUTO 16007KT 9SM OVC160 M07/M09 A2964 RMK ICG INTMT SLP073

TAF TAF CYYN
Valid from the 22 at 06:00 until the 22 at 18:00 UTC


220554Z 2206/2218 20007KT P6SM BKN220
FM221000 21008KT P6SM BKN080 OVC160
TEMPO 2210/2215 P6SM VCSH SCT050 OVC080
BECMG 2213/2215 24014G24KT
FM221500 25014G24KT P6SM FEW050 SCT200 RMK FCST BASED ON AUTO OBS. NXT FCST BY 221200Z



MET'MAP, your aeronautical weather chart ! - Copyright ORBIFLY December 2007 - Disclaimer

ORBIFLY MET'MAP TEAM :

Programming & Development : Alexandra Zaïnal
Concept & original design : Baudouin d'Aumeries
Assistance for programming : Marc-Olivier Méhu
Technical & hardware support : Manuel Goepfert

Contact : metmap@orbifly.com




SOURCES & CREDITS :

   NOAA       Earth
Advisory